Terminal Aerodrome Forecast
Issued by NWS

Home | Current Version | Previous Version | Text Only | Print | Product List | Glossary On
Versions: 1 2 3 4 5 6 7 8 9 10 11 12 13 14 15 16
000
FTUS46 KLOX 312300 RRA
TAFPMD
TAF
KPMD 312351Z 0100/0124 07015G22KT P6SM BKN060 BKN250
     FM010200 12007KT P6SM SKC
     FM010700 21008KT P6SM SKC
     FM011800 33005KT P6SM BKN250=

USA.gov is the U.S. government's official web portal to all federal, state and local government web resources and services.